Time;durP1;ratioP1;P1;durP2;ratioP2;P2;SDS_P1;SDS_P2;PMS_P1;PMS_P2;Temp;Humidity;BMP_temperature;BMP_pressure;BME280_temperature;BME280_humidity;BME280_pressure;Samples;Min_cycle;Max_cycle;Signal;HPM_P1;HPM_P2
2024/03/14 00:00:33;;;;;;;14.45;7.22;;;;;;;4.05;62.97;100559.84;1776281;79;21065;-74
2024/03/14 00:03:03;;;;;;;14.58;7.35;;;;;;;4.05;62.84;100563.41;1776777;79;21006;-73
2024/03/14 00:05:32;;;;;;;13.48;7.37;;;;;;;4.05;62.97;100562.55;1775285;79;21031;-74
2024/03/14 00:08:01;;;;;;;17.05;7.72;;;;;;;4.00;63.29;100556.23;1773776;79;21068;-74
2024/03/14 00:10:30;;;;;;;17.95;7.33;;;;;;;3.97;63.16;100559.75;1774676;80;21019;-71
2024/03/14 00:13:01;;;;;;;15.88;7.20;;;;;;;3.96;63.00;100552.12;1774884;80;21019;-74
2024/03/14 00:15:30;;;;;;;15.38;7.53;;;;;;;3.98;62.65;100556.88;1768064;80;21055;-73
2024/03/14 00:17:59;;;;;;;16.00;7.67;;;;;;;3.98;62.48;100558.23;1774228;80;21552;-74
2024/03/14 00:20:29;;;;;;;17.48;7.70;;;;;;;3.98;62.68;100549.25;1774212;80;21051;-73
2024/03/14 00:22:59;;;;;;;17.65;7.03;;;;;;;3.97;62.90;100548.41;1774522;80;21050;-74
2024/03/14 00:25:28;;;;;;;19.57;7.75;;;;;;;3.96;62.45;100538.56;1781489;79;21471;-73
2024/03/14 00:27:58;;;;;;;18.23;7.75;;;;;;;3.95;62.18;100539.57;1774939;80;21952;-74
2024/03/14 00:30:31;;;;;;;16.45;7.97;;;;;;;3.95;62.01;100544.98;1776412;80;21588;-74
2024/03/14 00:33:01;;;;;;;18.90;7.80;;;;;;;3.95;62.13;100546.34;1778063;80;21035;-73
2024/03/14 00:35:30;;;;;;;14.70;7.42;;;;;;;3.96;61.86;100543.98;1775360;79;21068;-73
2024/03/14 00:38:03;;;;;;;15.25;7.62;;;;;;;3.96;61.75;100546.70;1775315;80;21070;-74
2024/03/14 00:40:33;;;;;;;18.40;8.35;;;;;;;3.95;61.68;100547.70;1767827;80;21062;-74
2024/03/14 00:43:03;;;;;;;21.45;7.60;;;;;;;3.93;61.76;100545.64;1777768;80;21051;-74
2024/03/14 00:45:32;;;;;;;17.25;7.20;;;;;;;3.93;61.62;100548.86;1777063;79;21086;-74
2024/03/14 00:48:01;;;;;;;16.60;7.60;;;;;;;3.92;61.49;100545.80;1775255;80;21007;-74
2024/03/14 00:50:33;;;;;;;16.67;7.22;;;;;;;3.88;61.53;100541.14;1778450;79;21097;-75
2024/03/14 00:53:04;;;;;;;16.87;7.50;;;;;;;3.86;61.36;100545.02;1769702;80;21016;-74
2024/03/14 00:55:33;;;;;;;13.62;6.90;;;;;;;3.84;61.54;100545.16;1775606;80;21015;-72
2024/03/14 00:58:04;;;;;;;13.38;6.87;;;;;;;3.82;61.63;100544.46;1779280;80;21051;-73
2024/03/14 01:00:33;;;;;;;15.98;6.85;;;;;;;3.80;61.69;100547.32;1776331;80;21038;-73
2024/03/14 01:03:03;;;;;;;17.75;7.37;;;;;;;3.79;61.47;100545.62;1778634;80;21419;-72
2024/03/14 01:05:31;;;;;;;13.20;6.70;;;;;;;3.78;61.64;100544.41;1780499;80;21059;-74
2024/03/14 01:08:00;;;;;;;13.48;6.37;;;;;;;3.78;61.70;100529.51;1775310;80;21218;-72
2024/03/14 01:10:29;;;;;;;15.00;6.50;;;;;;;3.76;61.47;100535.58;1774949;79;21097;-74
2024/03/14 01:12:58;;;;;;;13.55;6.62;;;;;;;3.75;61.74;100536.58;1775202;79;21018;-73
2024/03/14 01:15:30;;;;;;;15.15;6.60;;;;;;;3.75;61.73;100527.95;1775774;79;21015;-74
2024/03/14 01:17:59;;;;;;;15.30;6.42;;;;;;;3.74;61.85;100533.52;1776764;79;21054;-74
2024/03/14 01:20:29;;;;;;;14.20;6.17;;;;;;;3.71;62.02;100533.82;1785052;79;21022;-75
2024/03/14 01:22:57;;;;;;;14.53;5.75;;;;;;;3.68;61.81;100547.67;1782510;79;21022;-74
2024/03/14 01:25:27;;;;;;;13.28;6.03;;;;;;;3.67;61.74;100543.25;1788310;79;21018;-74
2024/03/14 01:27:56;;;;;;;13.65;6.90;;;;;;;3.67;61.92;100542.75;1776075;80;21504;-74
2024/03/14 01:30:25;;;;;;;14.58;6.53;;;;;;;3.66;61.90;100538.34;1778235;79;21091;-73
2024/03/14 01:32:55;;;;;;;12.93;5.95;;;;;;;3.67;62.20;100529.70;1777953;80;21081;-74
2024/03/14 01:35:24;;;;;;;12.43;5.75;;;;;;;3.65;62.34;100527.65;1770887;79;21063;-74
2024/03/14 01:37:53;;;;;;;14.23;6.37;;;;;;;3.60;62.48;100524.53;1768693;79;21035;-73
2024/03/14 01:40:21;;;;;;;12.20;5.62;;;;;;;3.55;62.86;100532.27;1775442;80;21031;-74
2024/03/14 01:42:57;;;;;;;14.43;6.85;;;;;;;3.52;63.01;100529.85;1767859;80;21484;-74
2024/03/14 01:45:26;;;;;;;15.60;6.60;;;;;;;3.49;63.20;100541.34;1774620;79;21054;-73
2024/03/14 01:47:55;;;;;;;16.55;6.53;;;;;;;3.45;63.29;100539.93;1772756;79;21035;-73
2024/03/14 01:50:24;;;;;;;14.63;6.67;;;;;;;3.44;63.29;100539.58;1782723;79;21064;-72
2024/03/14 01:52:53;;;;;;;15.08;6.47;;;;;;;3.45;63.25;100542.64;1778838;79;21133;-73
2024/03/14 01:55:23;;;;;;;15.48;7.28;;;;;;;3.44;63.32;100537.37;1777035;80;21027;-74
2024/03/14 01:57:51;;;;;;;17.15;6.30;;;;;;;3.43;63.42;100535.16;1773525;80;21043;-74
2024/03/14 02:00:24;;;;;;;12.30;6.28;;;;;;;3.42;63.77;100533.45;1777843;80;21516;-73
2024/03/14 02:02:53;;;;;;;15.68;6.95;;;;;;;3.43;63.73;100538.37;1777006;79;21573;-75
2024/03/14 02:05:28;;;;;;;11.70;5.85;;;;;;;3.40;63.54;100531.39;1774912;80;21478;-74
2024/03/14 02:07:58;;;;;;;17.75;6.55;;;;;;;3.39;63.73;100535.10;1770419;80;21058;-73
2024/03/14 02:10:28;;;;;;;16.75;6.78;;;;;;;3.38;63.71;100529.84;1766219;81;21091;-73
2024/03/14 02:12:58;;;;;;;13.35;6.28;;;;;;;3.38;63.68;100530.69;1772420;81;21438;-72
2024/03/14 02:15:28;;;;;;;15.53;6.72;;;;;;;3.39;63.90;100532.90;1775057;81;21003;-72
2024/03/14 02:17:57;;;;;;;15.88;6.72;;;;;;;3.38;63.81;100532.05;1786165;79;21148;-72
2024/03/14 02:20:27;;;;;;;15.10;6.83;;;;;;;3.37;63.83;100528.98;1778404;80;21014;-72
2024/03/14 02:22:58;;;;;;;15.80;6.75;;;;;;;3.35;64.03;100529.63;1767425;80;21047;-72
2024/03/14 02:25:27;;;;;;;17.23;6.78;;;;;;;3.33;64.13;100522.16;1777919;80;21078;-73
2024/03/14 02:27:56;;;;;;;13.43;6.37;;;;;;;3.33;64.24;100523.52;1767307;80;21047;-72
2024/03/14 02:30:25;;;;;;;13.85;6.65;;;;;;;3.34;64.29;100522.51;1776892;80;21504;-73
2024/03/14 02:32:54;;;;;;;16.02;7.20;;;;;;;3.33;64.30;100526.72;1775030;80;21086;-71
2024/03/14 02:35:26;;;;;;;13.08;6.58;;;;;;;3.30;64.11;100527.88;1775072;80;21029;-73
2024/03/14 02:37:54;;;;;;;12.45;6.47;;;;;;;3.28;64.12;100529.02;1775253;81;21062;-74
2024/03/14 02:40:23;;;;;;;20.35;7.12;;;;;;;3.26;64.03;100529.16;1767442;80;21479;-72
2024/03/14 02:42:52;;;;;;;15.35;7.10;;;;;;;3.22;64.02;100533.14;1767435;80;21050;-74
2024/03/14 02:45:21;;;;;;;15.25;6.45;;;;;;;3.22;64.03;100536.34;1776541;80;21086;-74
2024/03/14 02:47:50;;;;;;;19.98;7.10;;;;;;;3.23;63.97;100532.64;1774116;80;21552;-74
2024/03/14 02:50:19;;;;;;;21.87;6.92;;;;;;;3.21;64.15;100531.43;1773711;80;21015;-73
2024/03/14 02:52:49;;;;;;;20.20;7.10;;;;;;;3.21;64.34;100530.08;1775385;81;21011;-73
2024/03/14 02:55:18;;;;;;;16.60;7.65;;;;;;;3.21;64.40;100531.43;1775191;80;21147;-75
2024/03/14 02:57:47;;;;;;;20.60;6.58;;;;;;;3.21;64.52;100534.14;1776372;79;21022;-73
2024/03/14 03:00:22;;;;;;;17.00;6.87;;;;;;;3.23;64.45;100532.14;1775205;80;21062;-73
2024/03/14 03:02:52;;;;;;;19.25;7.58;;;;;;;3.26;64.32;100526.46;1773373;79;21684;-75
2024/03/14 03:05:21;;;;;;;23.10;8.10;;;;;;;3.26;64.20;100533.73;1774957;80;21486;-73
2024/03/14 03:07:50;;;;;;;23.73;7.37;;;;;;;3.27;64.20;100530.02;1777455;80;21027;-73
2024/03/14 03:10:22;;;;;;;20.40;7.17;;;;;;;3.27;64.29;100530.88;1776322;79;21019;-74
2024/03/14 03:12:50;;;;;;;16.93;7.45;;;;;;;3.28;64.11;100528.52;1774926;80;21090;-74
2024/03/14 03:15:19;;;;;;;23.05;8.03;;;;;;;3.27;64.06;100524.11;1771997;80;21026;-73
2024/03/14 03:17:48;;;;;;;28.85;8.28;;;;;;;3.27;64.13;100524.61;1775167;80;21043;-72
2024/03/14 03:20:18;;;;;;;20.65;7.50;;;;;;;3.27;64.08;100524.11;1774958;81;21525;-73
2024/03/14 03:23:06;;;;;;;21.37;7.62;;;;;;;3.30;64.21;100522.95;1774869;80;21038;-74
2024/03/14 03:25:35;;;;;;;19.35;7.33;;;;;;;3.30;64.23;100524.30;1775082;79;21471;-74
2024/03/14 03:28:13;;;;;;;21.02;7.95;;;;;;;3.27;64.04;100521.89;1774748;80;21030;-74
2024/03/14 03:30:45;;;;;;;;;;;;;;;3.24;64.15;100524.87;1777692;80;21050;-74
2024/03/14 03:33:20;;;;;;;20.75;7.87;;;;;;;3.23;64.31;100526.72;1775035;81;20230;-74
2024/03/14 03:35:47;;;;;;;21.33;7.60;;;;;;;3.23;64.42;100525.37;1778155;80;21019;-75
2024/03/14 03:38:15;;;;;;;20.10;7.15;;;;;;;3.22;64.36;100523.66;1773780;80;21063;-74
2024/03/14 03:40:44;;;;;;;18.62;8.25;;;;;;;3.23;64.37;100524.02;1775102;80;21114;-74
2024/03/14 03:43:13;;;;;;;25.02;7.50;;;;;;;3.21;64.48;100524.66;1760282;80;21466;-75
2024/03/14 03:45:42;;;;;;;19.42;7.35;;;;;;;3.21;64.44;100518.39;1774985;80;21046;-72
2024/03/14 03:48:11;;;;;;;20.95;7.50;;;;;;;3.21;64.18;100523.81;1779828;80;21034;-71
2024/03/14 03:50:40;;;;;;;21.80;6.90;;;;;;;3.21;64.03;100519.75;1777712;80;21110;-72
2024/03/14 03:53:09;;;;;;;20.50;7.55;;;;;;;3.19;63.95;100517.19;1776060;80;21023;-72
2024/03/14 03:55:38;;;;;;;20.62;7.15;;;;;;;3.21;64.05;100521.95;1791579;79;21022;-73
2024/03/14 03:58:07;;;;;;;17.40;6.67;;;;;;;3.23;64.06;100521.31;1774586;80;21047;-72
2024/03/14 04:00:44;;;;;;;16.80;7.10;;;;;;;3.27;64.03;100525.96;1767363;81;21035;-73
2024/03/14 04:03:20;;;;;;;19.95;8.23;;;;;;;3.25;63.81;100526.11;1778870;79;21050;-73
2024/03/14 04:05:45;;;;;;;21.42;8.13;;;;;;;3.26;63.83;100529.16;1773917;79;21019;-73
2024/03/14 04:08:15;;;;;;;21.05;7.75;;;;;;;3.27;64.11;100521.89;1768355;81;21638;-73
2024/03/14 04:10:46;;;;;;;22.05;7.90;;;;;;;3.27;64.26;100528.66;1769425;80;21090;-73
2024/03/14 04:13:17;;;;;;;26.52;7.78;;;;;;;3.27;64.33;100524.11;1776398;80;21043;-73
2024/03/14 04:15:46;;;;;;;19.30;6.60;;;;;;;3.28;64.35;100512.27;1771569;80;21462;-73
2024/03/14 04:18:16;;;;;;;19.57;6.50;;;;;;;3.28;64.28;100510.06;1775822;80;21502;-73
2024/03/14 04:20:46;;;;;;;16.32;7.37;;;;;;;3.24;64.13;100512.18;1773810;80;21097;-74
2024/03/14 04:23:16;;;;;;;21.15;7.30;;;;;;;3.22;64.18;100511.98;1775013;81;21057;-73
2024/03/14 04:25:46;;;;;;;19.52;7.20;;;;;;;3.22;64.14;100515.54;1774954;81;21039;-73
2024/03/14 04:28:18;;;;;;;24.82;7.05;;;;;;;3.21;64.29;100511.13;1778228;80;21054;-73
2024/03/14 04:30:46;;;;;;;18.75;6.92;;;;;;;3.22;64.40;100522.81;1774957;79;21071;-73
2024/03/14 04:33:16;;;;;;;19.37;8.13;;;;;;;3.21;64.38;100530.08;1774898;81;21552;-74
2024/03/14 04:35:46;;;;;;;18.12;6.92;;;;;;;3.22;64.30;100524.16;1774937;79;21512;-72
2024/03/14 04:38:18;;;;;;;21.97;7.40;;;;;;;3.22;64.34;100529.58;1774072;80;21046;-72
2024/03/14 04:40:47;;;;;;;17.62;7.03;;;;;;;3.20;64.61;100536.49;1776462;80;21050;-73
2024/03/14 04:43:22;;;;;;;27.00;8.08;;;;;;;3.18;64.63;100536.64;1775016;79;21490;-73
2024/03/14 04:45:55;;;;;;;19.80;7.37;;;;;;;3.19;64.74;100538.84;1776868;80;21054;-73
2024/03/14 04:48:22;;;;;;;30.40;8.53;;;;;;;3.21;64.96;100543.61;1775299;79;21046;-73
2024/03/14 04:50:51;;;;;;;20.68;7.60;;;;;;;3.23;65.04;100543.47;1775223;80;21482;-73
2024/03/14 04:53:20;;;;;;;26.10;9.05;;;;;;;3.24;65.16;100536.55;1776529;80;21027;-73
2024/03/14 04:55:51;;;;;;;38.42;8.05;;;;;;;3.26;65.05;100542.70;1775266;80;21065;-73
2024/03/14 04:58:22;;;;;;;31.33;8.58;;;;;;;3.27;65.16;100540.35;1773536;80;21102;-74
2024/03/14 05:00:51;;;;;;;16.00;6.97;;;;;;;3.29;65.18;100546.97;1775763;80;21521;-74
2024/03/14 05:03:20;;;;;;;16.97;7.05;;;;;;;3.29;65.31;100541.06;1773164;80;21074;-73
2024/03/14 05:05:51;;;;;;;19.85;7.10;;;;;;;3.30;65.24;100536.49;1773682;80;21026;-74
2024/03/14 05:08:20;;;;;;;14.33;6.58;;;;;;;3.28;65.19;100540.70;1774947;80;21034;-73
2024/03/14 05:10:49;;;;;;;20.80;6.85;;;;;;;3.30;65.12;100543.27;1781852;80;21638;-73
2024/03/14 05:13:19;;;;;;;21.93;7.75;;;;;;;3.28;64.85;100548.83;1741367;81;21015;-73
2024/03/14 05:15:48;;;;;;;25.25;8.13;;;;;;;3.30;65.03;100555.45;1769605;80;21050;-73
2024/03/14 05:18:17;;;;;;;20.05;7.22;;;;;;;3.30;65.04;100557.66;1768030;81;21060;-75
2024/03/14 05:20:46;;;;;;;16.42;6.20;;;;;;;3.31;64.60;100553.95;1766856;80;21118;-72
2024/03/14 05:23:15;;;;;;;14.90;6.55;;;;;;;3.31;64.49;100549.03;1774807;80;21074;-74
2024/03/14 05:25:44;;;;;;;13.18;5.80;;;;;;;3.30;64.42;100557.66;1771477;79;21023;-74
2024/03/14 05:28:13;;;;;;;14.05;5.50;;;;;;;3.30;64.45;100549.53;1777500;80;21034;-73
2024/03/14 05:30:42;;;;;;;19.73;6.35;;;;;;;3.32;64.10;100554.80;1782781;80;21526;-74
2024/03/14 05:33:12;;;;;;;16.10;6.08;;;;;;;3.32;64.21;100557.51;1777537;80;20995;-74
2024/03/14 05:35:41;;;;;;;14.50;7.00;;;;;;;3.31;64.48;100560.72;1773851;80;21077;-74
2024/03/14 05:38:09;;;;;;;20.90;7.47;;;;;;;3.32;64.77;100554.30;1780461;80;21462;-73
2024/03/14 05:40:39;;;;;;;17.73;8.03;;;;;;;3.34;65.40;100563.63;1764886;80;21105;-73
2024/03/14 05:43:09;;;;;;;19.95;8.40;;;;;;;3.34;66.04;100566.34;1766338;81;21455;-74
2024/03/14 05:45:38;;;;;;;15.40;6.33;;;;;;;3.33;66.53;100570.91;1780840;79;20999;-73
2024/03/14 05:48:15;;;;;;;20.82;8.23;;;;;;;3.32;66.84;100562.92;1777824;80;21426;-73
2024/03/14 05:50:46;;;;;;;12.45;6.15;;;;;;;3.28;67.10;100563.72;1775332;81;21027;-74
2024/03/14 05:53:15;;;;;;;12.25;6.47;;;;;;;3.29;67.47;100570.84;1774208;79;21090;-73
2024/03/14 05:55:44;;;;;;;16.85;6.20;;;;;;;3.29;67.46;100577.61;1772730;80;21113;-73
2024/03/14 05:58:15;;;;;;;13.45;6.20;;;;;;;3.30;67.44;100587.44;1777642;80;21475;-73
2024/03/14 06:00:44;;;;;;;12.37;6.17;;;;;;;3.30;67.43;100584.73;1775491;80;21430;-73
2024/03/14 06:03:14;;;;;;;15.30;6.70;;;;;;;3.26;67.54;100581.11;1774921;79;21549;-72
2024/03/14 06:05:43;;;;;;;12.13;6.40;;;;;;;3.26;67.91;100586.53;1748465;79;21157;-73
2024/03/14 06:08:11;;;;;;;15.20;6.28;;;;;;;3.23;68.43;100586.29;1777965;79;21051;-73
2024/03/14 06:10:40;;;;;;;15.13;6.80;;;;;;;3.16;69.39;100593.29;1780341;80;21058;-72
2024/03/14 06:13:09;;;;;;;15.98;7.00;;;;;;;3.06;70.43;100593.80;1774944;80;21061;-73
2024/03/14 06:15:38;;;;;;;13.62;6.25;;;;;;;2.98;71.18;100591.82;1783928;79;21031;-73
2024/03/14 06:18:08;;;;;;;11.73;6.35;;;;;;;2.90;71.95;100590.83;1778790;79;21758;-73
2024/03/14 06:20:41;;;;;;;12.85;6.62;;;;;;;2.84;72.79;100585.00;1777462;80;21059;-72
2024/03/14 06:23:09;;;;;;;14.40;7.47;;;;;;;2.78;73.45;100589.63;1753421;80;21458;-73
2024/03/14 06:25:38;;;;;;;17.45;7.80;;;;;;;2.75;74.28;100588.56;1775089;79;21071;-72
2024/03/14 06:28:07;;;;;;;14.60;6.50;;;;;;;2.72;75.11;100592.05;1776192;80;21486;-72
2024/03/14 06:30:37;;;;;;;15.88;6.55;;;;;;;2.69;75.65;100581.02;1782361;80;21023;-73
2024/03/14 06:33:06;;;;;;;13.75;6.33;;;;;;;2.61;76.09;100594.41;1783009;80;21472;-73
2024/03/14 06:35:36;;;;;;;12.18;5.75;;;;;;;2.55;76.62;100593.09;1780857;79;21508;-73
2024/03/14 06:38:05;;;;;;;13.55;6.00;;;;;;;2.54;77.20;100592.73;1773691;80;21062;-73
2024/03/14 06:40:34;;;;;;;17.02;6.70;;;;;;;2.54;77.85;100594.58;1775086;80;21035;-73
2024/03/14 06:43:06;;;;;;;17.90;7.22;;;;;;;2.54;78.22;100610.80;1775024;80;21011;-73
2024/03/14 06:45:35;;;;;;;11.20;6.67;;;;;;;2.55;78.72;100605.75;1778240;80;21310;-73
2024/03/14 06:48:06;;;;;;;12.28;6.50;;;;;;;2.55;79.08;100605.75;1779211;80;21050;-72
2024/03/14 06:50:35;;;;;;;14.68;6.65;;;;;;;2.54;79.25;100598.64;1778974;79;21148;-72
2024/03/14 06:53:04;;;;;;;12.80;6.62;;;;;;;2.48;79.41;100596.00;1774487;80;21325;-73
2024/03/14 06:55:34;;;;;;;16.20;7.90;;;;;;;2.48;79.92;100595.14;1769571;81;21075;-73
2024/03/14 06:58:04;;;;;;;16.35;8.28;;;;;;;2.49;80.46;100594.15;1770967;79;21058;-73
2024/03/14 07:00:33;;;;;;;14.13;6.67;;;;;;;2.51;81.15;100601.12;1773332;80;21067;-72
2024/03/14 07:03:02;;;;;;;17.50;7.40;;;;;;;2.54;81.90;100597.28;1772804;80;21070;-73
2024/03/14 07:05:32;;;;;;;16.65;7.20;;;;;;;2.60;82.54;100591.80;1775124;80;21034;-72
2024/03/14 07:08:03;;;;;;;16.20;7.45;;;;;;;2.63;83.04;100593.77;1775794;80;21137;-73
2024/03/14 07:10:32;;;;;;;20.97;8.35;;;;;;;2.70;83.50;100600.31;1773214;80;21541;-73
2024/03/14 07:13:24;;;;;;;17.48;8.55;;;;;;;2.74;83.89;100590.91;1775127;80;21034;-75
2024/03/14 07:15:53;;;;;;;19.12;8.53;;;;;;;2.75;84.22;100602.09;1783941;80;21467;-72
2024/03/14 07:18:23;;;;;;;16.52;8.70;;;;;;;2.80;84.75;100603.02;1775855;80;21057;-73
2024/03/14 07:20:52;;;;;;;17.42;8.48;;;;;;;2.83;84.85;100614.91;1774137;80;21035;-73
2024/03/14 07:23:23;;;;;;;19.05;8.60;;;;;;;2.85;84.97;100607.50;1775746;79;21090;-73
2024/03/14 07:25:55;;;;;;;20.25;8.83;;;;;;;2.86;85.06;100608.70;1774882;79;21098;-72
2024/03/14 07:28:26;;;;;;;17.52;8.93;;;;;;;2.88;85.30;100613.98;1775672;80;21089;-73
2024/03/14 07:30:57;;;;;;;19.50;8.38;;;;;;;2.94;85.38;100619.31;1776090;80;21051;-73
2024/03/14 07:33:26;;;;;;;18.27;8.10;;;;;;;2.97;85.27;100619.03;1776528;80;21545;-73
2024/03/14 07:35:56;;;;;;;17.17;8.98;;;;;;;3.02;85.28;100618.09;1775013;80;21462;-74
2024/03/14 07:41:22;;;;;;;14.78;7.78;;;;;;;3.17;85.58;100626.13;1775191;80;21471;-73
2024/03/14 07:43:54;;;;;;;15.78;8.33;;;;;;;3.28;85.85;100629.20;1776115;79;21050;-74
2024/03/14 07:46:27;;;;;;;16.95;9.65;;;;;;;3.38;85.68;100625.98;1778388;80;21026;-72
2024/03/14 07:48:56;;;;;;;18.82;10.78;;;;;;;3.42;85.19;100625.54;1774755;80;21489;-74
2024/03/14 07:51:26;;;;;;;24.70;14.43;;;;;;;3.44;84.88;100628.11;1774071;80;21062;-74
2024/03/14 07:53:56;;;;;;;26.68;14.10;;;;;;;3.48;84.62;100630.37;1771429;80;21047;-74
2024/03/14 07:56:25;;;;;;;31.77;15.32;;;;;;;3.52;84.05;100630.08;1774889;80;21063;-73
2024/03/14 07:58:54;;;;;;;28.15;13.78;;;;;;;3.49;83.70;100626.66;1781126;80;21106;-73
2024/03/14 08:01:27;;;;;;;25.25;14.65;;;;;;;3.49;83.50;100629.38;1774895;81;21038;-73
2024/03/14 08:03:57;;;;;;;28.10;14.47;;;;;;;3.46;83.14;100635.08;1771815;80;21535;-73
2024/03/14 08:06:25;;;;;;;25.75;14.45;;;;;;;3.44;83.13;100626.75;1775505;80;21149;-73
2024/03/14 08:08:55;;;;;;;28.80;14.95;;;;;;;3.45;83.15;100631.17;1774173;80;21150;-73
2024/03/14 08:11:25;;;;;;;28.00;14.55;;;;;;;3.45;83.29;100626.61;1774760;81;21051;-72
2024/03/14 08:14:00;;;;;;;23.90;13.58;;;;;;;3.47;83.31;100624.60;1779861;80;21421;-73
2024/03/14 08:16:26;;;;;;;22.50;13.40;;;;;;;3.51;83.59;100630.58;1782092;79;21051;-72
2024/03/14 08:18:56;;;;;;;28.80;14.33;;;;;;;3.58;83.74;100631.70;1773730;80;21031;-73
2024/03/14 08:21:29;;;;;;;22.87;13.32;;;;;;;3.70;83.67;100624.25;1773072;80;21030;-74
2024/03/14 08:24:09;;;;;;;23.67;13.22;;;;;;;3.76;83.14;100626.36;1774983;80;21458;-73
2024/03/14 08:26:27;;;;;;;25.23;13.32;;;;;;;3.85;82.99;100619.20;1750965;80;21055;-74
2024/03/14 08:28:57;;;;;;;20.43;11.33;;;;;;;3.98;82.61;100618.38;1756815;79;21093;-72
2024/03/14 08:31:27;;;;;;;22.67;12.35;;;;;;;4.07;81.33;100616.98;1767529;80;21023;-75
2024/03/14 08:33:58;;;;;;;25.27;11.88;;;;;;;4.08;80.21;100613.27;1769378;80;21023;-74
2024/03/14 08:36:29;;;;;;;20.70;12.00;;;;;;;4.20;80.56;100618.48;1778737;80;21480;-75
2024/03/14 08:38:59;;;;;;;24.05;13.85;;;;;;;4.46;80.60;100616.24;1775280;79;21071;-74
2024/03/14 08:41:28;;;;;;;21.12;12.35;;;;;;;4.72;79.66;100624.52;1775224;80;21077;-74
2024/03/14 08:43:58;;;;;;;24.12;13.35;;;;;;;4.90;78.72;100616.87;1768241;80;21082;-73
2024/03/14 08:46:27;;;;;;;22.95;13.28;;;;;;;5.08;78.35;100623.99;1766884;81;21035;-72
2024/03/14 08:48:57;;;;;;;22.80;12.25;;;;;;;5.34;78.23;100630.00;1777417;80;21019;-73
2024/03/14 08:51:26;;;;;;;19.92;12.13;;;;;;;5.59;76.13;100625.59;1780508;80;21558;-73
2024/03/14 08:54:33;;;;;;;22.45;12.30;;;;;;;5.75;74.52;100618.88;1753136;81;21112;-75
2024/03/14 08:56:37;;;;;;;27.32;12.50;;;;;;;5.82;73.34;100619.95;1744524;79;21073;-76
2024/03/14 08:59:07;;;;;;;20.97;11.75;;;;;;;5.88;72.63;100612.53;1766936;81;21521;-75
2024/03/14 09:01:36;;;;;;;21.87;10.82;;;;;;;5.95;72.48;100620.41;1773256;81;21039;-76
2024/03/14 09:04:05;;;;;;;18.50;10.10;;;;;;;6.07;72.57;100623.70;1770227;81;21095;-74
2024/03/14 09:06:36;;;;;;;20.72;9.93;;;;;;;6.18;71.25;100617.11;1742500;80;21078;-76
2024/03/14 09:09:05;;;;;;;18.35;9.75;;;;;;;6.14;69.60;100614.38;1750814;80;21037;-74
2024/03/14 09:11:34;;;;;;;20.12;10.00;;;;;;;6.06;68.41;100617.06;1737995;82;21037;-75
2024/03/14 09:14:05;;;;;;;18.80;9.35;;;;;;;6.03;68.74;100615.52;1734320;80;21116;-74
2024/03/14 09:16:37;;;;;;;20.62;10.03;;;;;;;6.01;68.42;100614.33;1768648;81;21039;-73
2024/03/14 09:19:05;;;;;;;18.42;9.13;;;;;;;5.97;68.91;100610.73;1757989;81;21051;-73
2024/03/14 09:21:36;;;;;;;15.83;8.88;;;;;;;5.97;70.09;100611.59;1753275;80;21532;-75
2024/03/14 09:24:12;;;;;;;20.08;9.85;;;;;;;6.01;69.69;100612.11;1758983;81;21079;-77
2024/03/14 09:26:36;;;;;;;25.52;9.80;;;;;;;6.06;69.08;100608.39;1771810;81;21064;-74
2024/03/14 09:29:06;;;;;;;17.95;9.85;;;;;;;6.06;69.24;100614.34;1744329;81;21019;-73
2024/03/14 09:31:35;;;;;;;18.87;9.85;;;;;;;6.11;68.45;100611.48;1774239;80;21078;-74
2024/03/14 09:34:09;;;;;;;17.57;9.03;;;;;;;6.10;67.77;100610.28;1767905;80;21004;-74
2024/03/14 09:36:41;;;;;;;17.75;9.35;;;;;;;6.08;67.70;100609.59;1777845;80;21481;-73
2024/03/14 09:39:18;;;;;;;17.50;9.20;;;;;;;6.00;66.60;100615.34;1773895;79;21039;-74
2024/03/14 09:41:41;;;;;;;15.20;9.03;;;;;;;5.94;66.63;100618.71;1735065;81;21014;-75
2024/03/14 09:44:14;;;;;;;19.50;9.40;;;;;;;5.94;66.75;100612.42;1734754;81;21093;-75
2024/03/14 09:46:52;;;;;;;15.28;9.50;;;;;;;5.90;66.67;100613.25;1715825;82;21065;-75
2024/03/14 09:49:21;;;;;;;18.82;9.25;;;;;;;5.87;66.30;100607.25;1734948;80;21105;-74
2024/03/14 09:51:51;;;;;;;21.57;8.95;;;;;;;5.84;66.46;100609.76;1710767;82;21065;-73
2024/03/14 09:54:26;;;;;;;17.95;9.55;;;;;;;5.83;66.10;100604.48;1732794;81;21057;-73
2024/03/14 09:56:54;;;;;;;28.55;10.20;;;;;;;5.80;66.29;100602.09;1739603;81;21450;-75
2024/03/14 09:59:27;;;;;;;19.73;9.48;;;;;;;5.84;67.33;100598.88;1741239;81;21105;-73
2024/03/14 10:01:55;;;;;;;16.95;8.88;;;;;;;5.87;66.63;100597.23;1736060;81;21081;-75
2024/03/14 10:04:25;;;;;;;15.83;9.23;;;;;;;5.85;66.37;100605.17;1727867;82;21562;-75
2024/03/14 10:06:55;;;;;;;15.80;8.70;;;;;;;5.84;66.58;100597.52;1744586;80;21538;-75
2024/03/14 10:09:24;;;;;;;20.70;9.68;;;;;;;5.88;66.32;100594.00;1742356;81;21114;-75
2024/03/14 10:12:01;;;;;;;20.48;9.33;;;;;;;5.90;66.02;100596.94;1727196;81;21040;-74
2024/03/14 10:14:34;;;;;;;20.70;9.55;;;;;;;5.93;65.95;100598.48;1751073;80;21110;-75
2024/03/14 10:17:10;;;;;;;17.00;9.70;;;;;;;5.96;65.76;100594.08;1748285;81;21122;-74
2024/03/14 10:19:40;;;;;;;15.00;8.53;;;;;;;6.02;65.51;100594.78;1738928;80;22247;-74
2024/03/14 10:22:11;;;;;;;17.65;8.50;;;;;;;6.10;65.24;100592.59;1744106;82;21121;-75
2024/03/14 10:24:41;;;;;;;17.45;9.85;;;;;;;6.16;64.71;100590.07;1738481;82;21572;-77
2024/03/14 10:27:10;;;;;;;19.82;9.58;;;;;;;6.18;64.47;100588.55;1746927;81;21054;-73
2024/03/14 10:29:40;;;;;;;16.30;9.15;;;;;;;6.18;64.05;100589.40;1744154;81;21058;-74
2024/03/14 10:32:10;;;;;;;17.52;9.23;;;;;;;6.16;63.43;100596.02;1740360;81;21070;-74
2024/03/14 10:34:43;;;;;;;16.45;9.03;;;;;;;6.13;63.35;100594.48;1745457;81;21050;-74
2024/03/14 10:37:16;;;;;;;17.00;8.28;;;;;;;6.10;63.16;100591.24;1747316;81;21503;-75
2024/03/14 10:39:51;;;;;;;19.05;9.05;;;;;;;6.11;63.37;100597.02;1744203;82;21047;-75
2024/03/14 10:42:22;;;;;;;12.03;6.53;;;;;;;6.15;63.60;100599.25;1742114;80;21031;-75
2024/03/14 10:44:52;;;;;;;15.35;8.65;;;;;;;6.18;63.44;100594.84;1746818;82;21087;-75
2024/03/14 10:47:22;;;;;;;22.85;10.20;;;;;;;6.21;63.21;100595.02;1715929;82;21030;-75
2024/03/14 10:49:51;;;;;;;16.30;7.70;;;;;;;6.19;62.85;100595.19;1741273;80;21475;-74
2024/03/14 10:52:21;;;;;;;12.47;6.92;;;;;;;6.21;62.76;100595.02;1740704;81;21072;-74
2024/03/14 10:54:50;;;;;;;13.50;6.30;;;;;;;6.21;60.18;100596.37;1748317;80;21062;-76
2024/03/14 10:57:23;;;;;;;15.98;7.45;;;;;;;6.20;58.45;100587.88;1748969;81;21051;-75
2024/03/14 10:59:51;;;;;;;17.50;7.12;;;;;;;6.15;57.62;100588.38;1722013;82;21121;-75
2024/03/14 11:02:20;;;;;;;14.43;7.03;;;;;;;6.12;58.20;100583.26;1744492;82;21517;-74
2024/03/14 11:04:50;;;;;;;25.97;7.70;;;;;;;6.17;58.12;100592.28;1758066;80;21055;-74
2024/03/14 11:07:24;;;;;;;15.55;7.45;;;;;;;6.21;58.04;100593.66;1777160;80;21030;-73
2024/03/14 11:09:58;;;;;;;23.67;10.65;;;;;;;6.25;58.04;100593.67;1774161;79;21022;-75
2024/03/14 11:12:27;;;;;;;16.25;6.78;;;;;;;6.29;57.26;100597.77;1777140;80;21035;-74
2024/03/14 11:15:03;;;;;;;15.45;7.20;;;;;;;6.23;56.52;100591.62;1767567;81;21021;-74
2024/03/14 11:17:33;;;;;;;13.08;7.10;;;;;;;6.13;56.22;100589.55;1775940;79;21034;-74
2024/03/14 11:20:09;;;;;;;13.15;7.28;;;;;;;6.04;55.97;100605.84;1777688;79;21006;-75
2024/03/14 11:22:42;;;;;;;13.90;6.92;;;;;;;5.99;55.66;100594.59;1775706;80;21548;-73
2024/03/14 11:25:10;;;;;;;14.40;7.33;;;;;;;5.99;56.03;100591.03;1778756;79;21016;-74
2024/03/14 11:27:41;;;;;;;14.90;6.08;;;;;;;5.99;56.15;100591.88;1781070;80;21088;-73
2024/03/14 11:30:21;;;;;;;15.53;7.25;;;;;;;6.00;56.29;100593.58;1766871;80;21094;-73
2024/03/14 11:32:50;;;;;;;12.98;6.58;;;;;;;6.04;56.22;100594.95;1766669;81;21043;-74
2024/03/14 11:35:39;;;;;;;10.43;6.08;;;;;;;6.08;56.00;100595.48;1768742;79;21051;-74
2024/03/14 11:38:23;;;;;;;11.97;6.67;;;;;;;6.12;55.95;100595.50;1772328;80;21112;-74
2024/03/14 11:40:58;;;;;;;13.98;6.40;;;;;;;6.16;55.97;100601.47;1776182;80;21129;-74